Time;durP1;ratioP1;P1;durP2;ratioP2;P2;SDS_P1;SDS_P2;PMS_P1;PMS_P2;Temp;Humidity;BMP_temperature;BMP_pressure;BME280_temperature;BME280_humidity;BME280_pressure;Samples;Min_cycle;Max_cycle;Signal;HPM_P1;HPM_P2
2022/05/12 00:02:18;;;;;;;3.17;1.15;;;;;;;10.81;39.66;100958.16;1758837;81;20917;-89
2022/05/12 00:04:45;;;;;;;3.00;1.32;;;;;;;10.81;39.66;100960.79;1765753;81;20982;-87
2022/05/12 00:07:12;;;;;;;6.35;1.57;;;;;;;10.82;39.71;100959.84;1766818;81;21208;-91
2022/05/12 00:09:42;;;;;;;8.23;1.77;;;;;;;10.84;39.77;100958.45;1765881;81;21162;-90
2022/05/12 00:12:09;;;;;;;5.22;1.62;;;;;;;10.85;39.46;100957.51;1765659;81;20892;-89
2022/05/12 00:14:36;;;;;;;6.83;1.65;;;;;;;10.85;39.42;100960.13;1765060;81;20907;-89
2022/05/12 00:17:03;;;;;;;2.75;1.30;;;;;;;10.87;39.44;100964.83;1765147;81;21484;-90
2022/05/12 00:19:31;;;;;;;7.08;1.72;;;;;;;10.88;39.03;100959.98;1765236;81;20884;-90
2022/05/12 00:21:57;;;;;;;8.15;2.22;;;;;;;10.90;38.77;100959.44;1765379;81;21798;-92
2022/05/12 00:24:24;;;;;;;2.85;2.10;;;;;;;10.92;38.52;100960.20;1765042;81;20955;-91
2022/05/12 00:26:52;;;;;;;4.85;2.27;;;;;;;10.95;38.41;100956.08;1767707;78;20932;-90
2022/05/12 00:29:19;;;;;;;7.45;2.55;;;;;;;10.98;38.20;100955.89;1767964;80;20883;-91
2022/05/12 00:31:49;;;;;;;6.60;4.53;;;;;;;11.02;38.18;100956.58;1768033;78;20947;-89
2022/05/12 00:34:16;;;;;;;9.00;6.00;;;;;;;11.03;38.28;100955.19;1768088;78;21099;-90
2022/05/12 00:36:43;;;;;;;6.37;2.50;;;;;;;11.03;38.22;100947.31;1768044;78;21005;-93
2022/05/12 00:39:11;;;;;;;4.15;1.80;;;;;;;11.02;38.26;100944.30;1767470;78;20924;-91
2022/05/12 00:41:39;;;;;;;5.17;2.10;;;;;;;11.02;38.38;100945.61;1765158;81;20915;-90
2022/05/12 00:44:09;;;;;;;4.78;1.90;;;;;;;11.02;38.43;100940.83;1765130;81;20986;-90
2022/05/12 00:46:40;;;;;;;3.58;2.05;;;;;;;11.01;38.49;100944.41;1765063;81;21272;-91
2022/05/12 00:49:32;;;;;;;5.17;2.22;;;;;;;10.98;38.43;100944.95;1765077;81;20935;-90
2022/05/12 00:52:16;;;;;;;3.22;1.77;;;;;;;10.97;38.58;100942.41;1765088;81;21416;-92
2022/05/12 00:54:57;;;;;;;5.37;2.22;;;;;;;10.95;38.55;100942.48;1765106;81;21471;-90
2022/05/12 00:57:31;;;;;;;4.17;1.72;;;;;;;10.92;38.58;100939.20;1766094;81;20938;-89
2022/05/12 00:59:58;;;;;;;5.90;1.60;;;;;;;10.91;38.52;100946.20;1765706;81;21183;-90
2022/05/12 01:02:26;;;;;;;2.95;1.72;;;;;;;10.89;38.46;100946.75;1766198;81;20951;-91
2022/05/12 01:04:57;;;;;;;5.35;2.08;;;;;;;10.89;38.50;100941.98;1740989;81;20970;-92
2022/05/12 01:07:24;;;;;;;4.37;1.70;;;;;;;10.88;38.60;100946.39;1768416;81;20998;-92
2022/05/12 01:09:51;;;;;;;6.40;2.05;;;;;;;10.87;38.62;100940.77;1768742;81;20959;-91
2022/05/12 01:12:18;;;;;;;4.67;1.80;;;;;;;10.86;38.59;100943.00;1768147;81;23312;-91
2022/05/12 01:14:45;;;;;;;2.33;1.82;;;;;;;10.86;38.59;100946.10;1768115;81;21005;-91
2022/05/12 01:17:12;;;;;;;4.97;1.72;;;;;;;10.85;38.70;100953.58;1768441;81;20955;-92
2022/05/12 01:19:41;;;;;;;3.83;1.72;;;;;;;10.82;38.83;100950.66;1769038;81;20879;-89
2022/05/12 01:22:10;;;;;;;3.10;1.35;;;;;;;10.81;38.84;100950.77;1768195;81;20895;-90
2022/05/12 01:24:42;;;;;;;2.58;1.45;;;;;;;10.78;38.87;100947.38;1768182;81;21232;-90
2022/05/12 01:27:22;;;;;;;3.55;1.65;;;;;;;10.76;38.93;100949.68;1768242;81;20934;-91
2022/05/12 01:29:54;;;;;;;3.27;1.32;;;;;;;10.74;39.03;100949.79;1768381;81;21428;-92
2022/05/12 01:32:24;;;;;;;4.22;1.52;;;;;;;10.72;39.07;100951.65;1768156;81;20943;-90
2022/05/12 01:34:52;;;;;;;2.08;1.57;;;;;;;10.70;39.17;100951.36;1768281;81;20935;-93
2022/05/12 01:37:20;;;;;;;3.47;1.92;;;;;;;10.67;39.11;100945.81;1768668;81;21775;-90
2022/05/12 01:39:46;;;;;;;4.42;1.75;;;;;;;10.66;39.19;100949.36;1768514;81;20971;-92
2022/05/12 01:42:15;;;;;;;8.10;1.82;;;;;;;10.65;39.14;100954.23;1768479;81;20923;-92
2022/05/12 01:44:42;;;;;;;3.72;2.30;;;;;;;10.63;39.32;100947.36;1768456;81;20951;-90
2022/05/12 01:47:09;;;;;;;3.10;1.57;;;;;;;10.63;39.16;100943.42;1769088;81;20915;-90
2022/05/12 01:49:36;;;;;;;2.90;1.50;;;;;;;10.61;39.26;100943.53;1769804;81;22052;-89
2022/05/12 01:52:03;;;;;;;8.53;1.75;;;;;;;10.61;39.30;100944.00;1770278;81;20982;-90
2022/05/12 01:54:30;;;;;;;5.12;1.77;;;;;;;10.61;39.36;100951.87;1768819;81;20934;-91
2022/05/12 01:56:57;;;;;;;10.18;1.90;;;;;;;10.62;39.63;100948.30;1768259;81;21353;-90
2022/05/12 01:59:24;;;;;;;6.53;1.87;;;;;;;10.61;39.36;100942.69;1768429;81;20986;-92
2022/05/12 02:01:50;;;;;;;2.77;1.70;;;;;;;10.62;39.38;100944.37;1768429;81;21269;-89
2022/05/12 02:04:17;;;;;;;6.28;2.33;;;;;;;10.63;39.46;100935.11;1765494;81;20935;-91
2022/05/12 02:06:44;;;;;;;4.55;1.50;;;;;;;10.65;39.41;100945.50;1765403;81;21006;-90
2022/05/12 02:09:12;;;;;;;3.35;1.42;;;;;;;10.65;39.49;100941.13;1765695;81;20947;-91
2022/05/12 02:11:39;;;;;;;2.90;1.60;;;;;;;10.67;39.52;100943.20;1765617;81;21721;-91
2022/05/12 02:14:08;;;;;;;4.65;1.77;;;;;;;10.68;39.60;100944.88;1765813;81;21071;-92
2022/05/12 02:16:35;;;;;;;3.30;1.90;;;;;;;10.69;39.49;100945.23;1765723;81;20908;-93
2022/05/12 02:19:04;;;;;;;2.92;1.25;;;;;;;10.70;39.50;100951.36;1735923;81;20939;-91
2022/05/12 02:21:31;;;;;;;3.47;1.87;;;;;;;10.70;39.67;100951.36;1765352;81;20904;-89
2022/05/12 02:23:58;;;;;;;14.55;2.00;;;;;;;10.70;39.59;100952.20;1765102;81;20931;-91
2022/05/12 02:26:24;;;;;;;5.40;1.62;;;;;;;10.70;39.56;100951.36;1765122;81;21160;-90
2022/05/12 02:28:51;;;;;;;4.72;1.50;;;;;;;10.71;39.60;100959.12;1765166;81;20848;-91
2022/05/12 02:31:17;;;;;;;4.33;1.52;;;;;;;10.73;39.72;100965.60;1764953;81;21481;-91
2022/05/12 02:33:44;;;;;;;10.90;2.08;;;;;;;10.73;39.69;100961.67;1764978;81;20875;-91
2022/05/12 02:36:10;;;;;;;4.42;1.22;;;;;;;10.74;39.52;100966.84;1765362;81;20927;-91
2022/05/12 02:38:37;;;;;;;3.08;1.37;;;;;;;10.74;39.69;100966.84;1765791;81;21302;-89
2022/05/12 02:41:04;;;;;;;4.00;1.27;;;;;;;10.75;39.53;100961.96;1766921;81;20955;-89
2022/05/12 02:43:33;;;;;;;4.42;1.62;;;;;;;10.76;39.61;100964.98;1766601;81;20915;-91
2022/05/12 02:46:03;;;;;;;5.47;1.60;;;;;;;10.76;39.43;100962.80;1765563;81;21404;-92
2022/05/12 02:48:33;;;;;;;2.50;1.47;;;;;;;10.78;39.60;100959.19;1765305;81;20899;-91
2022/05/12 02:51:00;;;;;;;6.83;1.72;;;;;;;10.81;39.53;100966.51;1766597;81;21208;-88
2022/05/12 02:53:28;;;;;;;3.58;1.82;;;;;;;10.82;39.42;100956.38;1767497;81;20943;-87
2022/05/12 02:55:54;;;;;;;7.08;1.90;;;;;;;10.85;39.59;100964.07;1737821;81;20916;-88
2022/05/12 02:58:21;;;;;;;4.33;1.50;;;;;;;10.87;39.34;100961.77;1767969;81;20959;-87
2022/05/12 03:00:55;;;;;;;3.17;1.35;;;;;;;10.90;39.30;100961.58;1738193;81;20911;-87
2022/05/12 03:03:19;;;;;;;2.75;1.32;;;;;;;10.94;39.30;100961.80;1766163;81;21149;-89
2022/05/12 03:05:46;;;;;;;3.52;1.62;;;;;;;10.98;39.26;100963.77;1766144;81;20955;-88
2022/05/12 03:08:14;;;;;;;5.03;1.50;;;;;;;11.03;39.39;100964.38;1767355;81;20904;-89
2022/05/12 03:10:40;;;;;;;4.03;1.95;;;;;;;11.06;39.63;100961.56;1765371;81;20932;-91
2022/05/12 03:13:07;;;;;;;5.12;1.98;;;;;;;11.10;39.73;100963.56;1765762;81;20936;-90
2022/05/12 03:15:34;;;;;;;4.60;1.40;;;;;;;11.15;39.39;100958.88;1765115;81;21189;-90
2022/05/12 03:18:00;;;;;;;3.90;1.92;;;;;;;11.22;39.25;100968.56;1764753;81;20947;-89
2022/05/12 03:20:29;;;;;;;5.50;1.92;;;;;;;11.29;39.28;100969.91;1735087;81;20884;-92
2022/05/12 03:22:55;;;;;;;3.10;1.95;;;;;;;11.38;39.23;100968.05;1764966;81;20982;-90
2022/05/12 03:25:22;;;;;;;2.75;2.02;;;;;;;11.45;39.17;100970.73;1765882;81;20987;-89
2022/05/12 03:27:49;;;;;;;6.22;1.32;;;;;;;11.53;39.33;100967.17;1766755;80;22157;-87
2022/05/12 03:30:19;;;;;;;6.67;2.17;;;;;;;11.59;38.93;100970.76;1766769;81;21030;-87
2022/05/12 03:32:47;;;;;;;5.55;1.80;;;;;;;11.66;38.79;100963.36;1767193;81;20876;-88
2022/05/12 03:35:14;;;;;;;11.55;1.92;;;;;;;11.74;38.66;100968.18;1765225;81;21010;-87
2022/05/12 03:37:42;;;;;;;4.90;1.80;;;;;;;11.80;38.64;100971.29;1765153;81;21013;-89
2022/05/12 03:40:12;;;;;;;5.97;1.47;;;;;;;11.88;38.70;100968.70;1764938;81;21106;-90
2022/05/12 03:42:39;;;;;;;2.20;1.45;;;;;;;11.96;38.90;100974.31;1764562;81;21401;-90
2022/05/12 03:45:07;;;;;;;5.22;1.70;;;;;;;12.02;38.81;100968.70;1764802;81;20904;-90
2022/05/12 03:47:36;;;;;;;3.37;1.70;;;;;;;12.09;38.60;100971.33;1764871;81;20943;-90
2022/05/12 03:50:11;;;;;;;1.67;1.05;;;;;;;12.17;38.51;100967.77;1764669;81;20943;-90
2022/05/12 03:52:39;;;;;;;2.83;1.50;;;;;;;12.28;38.71;100970.22;1765069;81;21077;-90
2022/05/12 03:55:07;;;;;;;1.92;1.57;;;;;;;12.36;38.35;100971.44;1764201;81;20939;-90
2022/05/12 03:57:35;;;;;;;7.92;2.05;;;;;;;12.47;38.24;100971.23;1765298;80;21444;-91
2022/05/12 04:00:06;;;;;;;6.03;1.70;;;;;;;12.57;38.21;100978.45;1765719;81;20939;-90
2022/05/12 04:02:35;;;;;;;5.00;2.33;;;;;;;12.70;37.88;100981.64;1766701;81;20939;-88
2022/05/12 04:05:03;;;;;;;5.15;1.98;;;;;;;12.82;37.98;100980.38;1770191;81;21100;-88
2022/05/12 04:07:30;;;;;;;8.90;1.70;;;;;;;12.96;37.82;100974.70;1768141;81;20895;-87
2022/05/12 04:09:56;;;;;;;6.90;1.47;;;;;;;13.09;37.59;100973.44;1768311;81;20990;-91
2022/05/12 04:12:22;;;;;;;4.47;1.62;;;;;;;13.23;38.23;100979.51;1740145;81;21002;-90
2022/05/12 04:14:49;;;;;;;9.30;1.90;;;;;;;13.38;38.31;100979.46;1768816;81;20927;-90
2022/05/12 04:18:16;;;;;;;10.90;2.50;;;;;;;13.81;37.94;100977.45;1800109;79;22715;-89
2022/05/12 04:20:47;;;;;;;4.03;1.90;;;;;;;14.26;37.51;100980.50;1765385;80;21030;-90
2022/05/12 04:23:14;;;;;;;4.92;1.52;;;;;;;14.89;36.70;100981.33;1760172;81;21144;-88
2022/05/12 04:25:40;;;;;;;8.20;1.98;;;;;;;15.54;36.10;100977.93;1759399;80;20857;-90
2022/05/12 04:28:07;;;;;;;8.03;2.12;;;;;;;16.15;34.70;100973.25;1759213;80;20935;-91
2022/05/12 04:30:34;;;;;;;8.45;1.90;;;;;;;16.74;33.89;100973.92;1758923;81;20864;-89
2022/05/12 04:35:48;;;;;;;3.50;1.95;;;;;;;17.90;32.09;100975.94;1760360;80;21232;-88
2022/05/12 04:38:15;;;;;;;5.50;1.87;;;;;;;18.53;31.11;100977.95;1761439;80;20837;-88
2022/05/12 04:40:41;;;;;;;5.95;1.98;;;;;;;19.10;30.83;100978.25;1761907;80;20888;-86
2022/05/12 04:43:08;;;;;;;4.35;1.65;;;;;;;19.60;29.86;100979.92;1760999;80;20956;-88
2022/05/12 04:45:34;;;;;;;2.67;1.62;;;;;;;20.06;29.03;100974.32;1760830;80;20890;-89
2022/05/12 04:48:03;;;;;;;3.22;2.00;;;;;;;20.47;29.77;100974.34;1761228;78;21104;-90
2022/05/12 04:50:32;;;;;;;4.03;1.47;;;;;;;20.91;29.47;100974.55;1761824;78;20857;-87
2022/05/12 05:08:30;;;;;;;6.97;2.67;;;;;;;24.35;24.33;100973.62;1807955;77;27735;-91
2022/05/12 05:11:00;;;;;;;3.30;2.02;;;;;;;24.89;23.95;100974.20;1809965;79;20923;-89
2022/05/12 05:13:27;;;;;;;4.83;3.10;;;;;;;25.31;23.54;100976.14;1777306;80;21263;-90
2022/05/12 05:15:54;;;;;;;7.35;3.58;;;;;;;25.48;23.34;100978.16;1809722;78;21377;-91
2022/05/12 05:18:21;;;;;;;7.50;4.00;;;;;;;25.46;22.84;100986.42;1808713;79;21398;-91
2022/05/12 05:20:47;;;;;;;9.10;3.60;;;;;;;25.39;22.97;100990.34;1808564;78;20922;-91
2022/05/12 05:23:16;;;;;;;7.87;3.72;;;;;;;25.46;22.53;100978.84;1808834;79;20896;-92
2022/05/12 05:25:46;;;;;;;6.22;3.30;;;;;;;25.56;22.66;100986.16;1808900;78;21183;-92
2022/05/12 05:28:15;;;;;;;4.28;2.90;;;;;;;25.83;22.72;100982.03;1808504;78;21388;-92
2022/05/12 05:30:42;;;;;;;9.75;2.85;;;;;;;26.14;22.14;100984.58;1808732;79;21035;-91
2022/05/12 05:33:09;;;;;;;6.03;2.27;;;;;;;26.36;22.16;100978.78;1808663;79;20927;-91
2022/05/12 05:35:36;;;;;;;6.58;2.30;;;;;;;26.61;21.75;100979.35;1808440;79;20978;-91
2022/05/12 05:38:02;;;;;;;4.95;2.20;;;;;;;26.69;22.00;100977.05;1808702;79;21059;-91
2022/05/12 05:40:29;;;;;;;5.67;1.87;;;;;;;26.75;22.04;100974.95;1808614;78;20927;-93
2022/05/12 05:42:56;;;;;;;8.13;2.00;;;;;;;26.85;22.31;100975.45;1808876;78;20946;-92
2022/05/12 05:45:23;;;;;;;3.22;1.80;;;;;;;27.07;22.40;100976.83;1809445;79;20919;-91
2022/05/12 05:47:58;;;;;;;8.33;2.15;;;;;;;27.35;21.91;100976.10;1808920;79;21357;-89
2022/05/12 05:53:23;;;;;;;6.75;2.05;;;;;;;27.65;21.39;100985.66;1808933;78;21259;-92
2022/05/12 05:55:45;;;;;;;4.03;1.92;;;;;;;28.10;20.04;100971.39;1808550;79;20947;-91
2022/05/12 05:58:16;;;;;;;4.58;1.70;;;;;;;28.27;19.82;100981.83;1808608;79;20880;-91
2022/05/12 06:00:43;;;;;;;3.90;1.70;;;;;;;28.42;19.87;100977.66;1809602;78;20840;-89
2022/05/12 06:03:10;;;;;;;3.42;2.05;;;;;;;28.67;20.04;100980.68;1810836;78;21113;-91
2022/05/12 06:05:37;;;;;;;5.95;2.15;;;;;;;28.96;20.07;100971.94;1810132;78;20970;-89
2022/05/12 06:08:04;;;;;;;3.40;1.67;;;;;;;29.19;19.75;100975.09;1822891;78;20884;-90
2022/05/12 06:10:33;;;;;;;4.95;2.20;;;;;;;29.41;19.60;100967.62;1829544;78;20856;-90
2022/05/12 06:13:02;;;;;;;6.35;1.60;;;;;;;29.62;18.91;100965.77;1805893;78;20923;-91
2022/05/12 06:15:29;;;;;;;3.10;1.55;;;;;;;29.77;18.56;100958.80;1830849;78;21255;-92
2022/05/12 06:17:55;;;;;;;3.77;2.10;;;;;;;29.87;18.57;100964.61;1828988;78;20971;-90
2022/05/12 06:20:22;;;;;;;6.62;2.10;;;;;;;30.01;18.30;100962.70;1795654;79;20864;-88
2022/05/12 06:22:51;;;;;;;7.03;2.20;;;;;;;30.16;18.75;100973.58;1795376;80;20983;-90
2022/05/12 06:25:18;;;;;;;2.72;1.85;;;;;;;30.40;18.61;100964.48;1781931;80;20888;-91
2022/05/12 06:27:45;;;;;;;2.95;1.77;;;;;;;30.69;18.07;100963.61;1795359;79;20994;-91
2022/05/12 06:30:13;;;;;;;3.08;1.77;;;;;;;30.91;18.02;100960.90;1796123;79;20876;-93
2022/05/12 06:32:40;;;;;;;7.25;2.55;;;;;;;31.08;18.28;100959.86;1796717;79;20948;-91
2022/05/12 06:35:10;;;;;;;8.85;2.27;;;;;;;31.31;17.93;100962.49;1796398;79;20959;-91
2022/05/12 06:37:37;;;;;;;6.65;2.08;;;;;;;31.38;17.57;100961.38;1796226;79;20966;-89
2022/05/12 06:40:11;;;;;;;12.70;2.83;;;;;;;31.40;17.24;100957.92;1797564;79;21122;-88
2022/05/12 06:42:41;;;;;;;2.52;1.75;;;;;;;31.43;17.00;100966.69;1797080;80;20922;-88
2022/05/12 06:45:13;;;;;;;4.17;1.90;;;;;;;31.44;17.04;100963.77;1797111;79;20943;-92
2022/05/12 06:47:50;;;;;;;7.45;1.90;;;;;;;31.53;17.10;100965.14;1797663;80;20920;-92
2022/05/12 06:50:35;;;;;;;6.72;2.52;;;;;;;31.67;16.76;100958.23;1797628;80;20973;-94
2022/05/12 06:53:05;;;;;;;4.97;2.42;;;;;;;31.67;16.98;100956.34;1759662;80;21507;-90
2022/05/12 06:55:32;;;;;;;9.20;2.60;;;;;;;31.71;16.85;100955.39;1798209;80;20891;-90
2022/05/12 06:58:00;;;;;;;8.38;2.25;;;;;;;31.86;17.15;100960.43;1797867;78;20920;-91
2022/05/12 07:00:28;;;;;;;5.33;2.30;;;;;;;32.04;17.23;100959.64;1796728;80;20998;-92
2022/05/12 07:02:58;;;;;;;8.93;2.17;;;;;;;32.13;16.84;100959.13;1796980;79;21061;-91
2022/05/12 07:05:26;;;;;;;5.65;1.80;;;;;;;32.17;16.63;100963.05;1796965;79;21218;-95
2022/05/12 07:07:54;;;;;;;6.30;2.37;;;;;;;32.26;16.55;100957.30;1796879;78;20896;-93
2022/05/12 07:10:24;;;;;;;4.10;2.60;;;;;;;32.38;16.74;100951.41;1763840;81;20935;-92
2022/05/12 07:12:52;;;;;;;6.72;2.45;;;;;;;32.55;16.29;100947.55;1796571;80;20840;-91
2022/05/12 07:15:25;;;;;;;4.40;2.45;;;;;;;32.73;16.73;100943.44;1763856;81;20971;-91
2022/05/12 07:17:55;;;;;;;8.10;2.50;;;;;;;32.91;15.82;100946.63;1797339;79;21991;-92
2022/05/12 07:28:41;;;;;;;7.62;2.77;;;;;;;33.22;15.37;100936.55;1774310;81;20927;-94
2022/05/12 07:31:10;;;;;;;5.37;2.05;;;;;;;33.37;15.56;100930.12;1765381;81;20895;-94
2022/05/12 07:33:42;;;;;;;9.65;3.67;;;;;;;33.51;14.98;100932.06;1800854;79;20947;-94
2022/05/12 07:36:14;;;;;;;;;;;;;;;33.52;14.90;100930.17;1803806;79;20876;-92
2022/05/12 07:38:42;;;;;;;3.62;1.95;;;;;;;33.44;14.63;100931.36;1800832;79;21004;-91
2022/05/12 07:41:12;;;;;;;4.15;2.17;;;;;;;33.37;14.59;100936.06;1790523;79;20947;-92
2022/05/12 07:43:40;;;;;;;5.45;2.83;;;;;;;33.52;14.40;100936.97;1801430;79;22921;-92
2022/05/12 07:46:07;;;;;;;7.72;2.35;;;;;;;33.55;14.22;100933.25;1800832;79;20924;-92
2022/05/12 07:48:42;;;;;;;8.55;3.42;;;;;;;33.44;14.35;100940.34;1807654;78;21020;-94
2022/05/12 07:51:05;;;;;;;5.25;2.00;;;;;;;33.50;14.16;100931.75;1826984;78;20904;-95
2022/05/12 07:53:33;;;;;;;3.67;2.00;;;;;;;33.47;14.50;100924.08;1830258;78;20872;-94
2022/05/12 07:56:04;;;;;;;4.50;1.67;;;;;;;33.36;14.71;100930.34;1830380;78;21406;-92
2022/05/12 07:58:31;;;;;;;2.30;1.60;;;;;;;33.36;15.33;100928.45;1829708;78;20867;-91
2022/05/12 08:00:58;;;;;;;5.25;1.67;;;;;;;33.62;15.30;100933.16;1830134;77;20943;-90
2022/05/12 08:03:26;;;;;;;5.85;2.62;;;;;;;33.90;14.88;100931.58;1796354;79;20970;-91
2022/05/12 08:05:55;;;;;;;7.12;2.02;;;;;;;33.96;14.57;100929.27;1782800;80;21004;-93
2022/05/12 08:08:22;;;;;;;4.37;1.40;;;;;;;34.00;14.56;100928.54;1785369;79;21325;-90
2022/05/12 08:10:50;;;;;;;3.95;2.00;;;;;;;33.97;14.35;100937.70;1800109;79;20880;-91
2022/05/12 08:13:17;;;;;;;4.20;1.90;;;;;;;33.88;14.72;100933.16;1787279;79;20888;-92
2022/05/12 08:15:46;;;;;;;7.25;1.85;;;;;;;33.86;14.57;100935.30;1800221;79;21638;-92
2022/05/12 08:18:18;;;;;;;4.55;2.27;;;;;;;33.84;14.42;100941.54;1801222;79;20884;-91
2022/05/12 08:20:45;;;;;;;3.25;1.92;;;;;;;34.01;14.58;100939.70;1801386;78;21315;-89
2022/05/12 08:23:13;;;;;;;4.45;1.55;;;;;;;34.13;14.37;100937.52;1801403;76;20872;-91
2022/05/12 08:25:40;;;;;;;2.37;2.10;;;;;;;34.11;14.68;100936.96;1800831;79;20951;-92
2022/05/12 08:28:09;;;;;;;1.98;1.77;;;;;;;34.08;14.70;100932.77;1799928;78;20978;-92
2022/05/12 08:30:35;;;;;;;2.77;1.60;;;;;;;34.16;14.87;100932.43;1800583;79;20975;-91
2022/05/12 08:33:02;;;;;;;4.28;1.50;;;;;;;34.36;14.52;100932.01;1800813;79;21048;-90
2022/05/12 08:35:29;;;;;;;6.35;1.75;;;;;;;34.55;13.96;100924.98;1800657;79;20955;-89
2022/05/12 08:38:01;;;;;;;4.42;1.65;;;;;;;34.40;14.25;100936.45;1801269;79;20919;-90
2022/05/12 08:40:42;;;;;;;3.67;1.95;;;;;;;34.33;14.25;100930.29;1801119;79;20923;-90
2022/05/12 08:43:16;;;;;;;2.90;1.95;;;;;;;34.33;14.68;100930.29;1801138;79;21416;-89
2022/05/12 08:45:43;;;;;;;2.52;1.32;;;;;;;34.33;13.95;100926.20;1787975;79;21241;-91
2022/05/12 08:48:11;;;;;;;6.83;2.08;;;;;;;34.04;13.87;100919.38;1801670;79;20896;-92
2022/05/12 08:50:40;;;;;;;4.78;1.55;;;;;;;33.89;14.67;100917.15;1787643;79;20943;-91
2022/05/12 08:53:13;;;;;;;4.08;1.85;;;;;;;33.92;14.78;100920.73;1801596;79;20900;-90
2022/05/12 08:55:50;;;;;;;4.85;1.12;;;;;;;34.08;14.64;100915.08;1800464;79;20923;-89
2022/05/12 08:58:25;;;;;;;4.78;1.17;;;;;;;34.21;14.50;100912.10;1800111;79;21130;-90
2022/05/12 09:01:14;;;;;;;1.65;0.90;;;;;;;34.28;14.72;100914.69;1799400;78;20840;-90
2022/05/12 09:04:12;;;;;;;4.20;1.20;;;;;;;34.31;14.42;100918.30;1801581;78;20930;-88
2022/05/12 09:07:07;;;;;;;7.03;1.25;;;;;;;34.41;14.56;100910.84;1800909;78;20880;-89
2022/05/12 09:10:04;;;;;;;5.78;1.02;;;;;;;34.59;14.44;100914.72;1773068;78;20969;-86
2022/05/12 09:13:02;;;;;;;3.75;0.90;;;;;;;34.68;14.10;100902.92;1774211;79;21267;-87
2022/05/12 09:15:35;;;;;;;3.77;1.90;;;;;;;34.59;13.56;100906.55;1773398;81;20922;-90
2022/05/12 09:18:13;;;;;;;6.03;1.65;;;;;;;34.40;14.22;100900.50;1771242;81;20874;-88
2022/05/12 09:20:45;;;;;;;6.37;1.22;;;;;;;34.49;14.53;100898.75;1771491;81;20835;-89
2022/05/12 09:23:11;;;;;;;1.45;1.35;;;;;;;34.69;13.99;100892.88;1771909;81;20910;-89
2022/05/12 09:25:43;;;;;;;2.62;1.12;;;;;;;34.66;14.02;100891.44;1772977;81;21108;-89
2022/05/12 09:28:40;;;;;;;4.80;1.32;;;;;;;34.61;14.08;100893.51;1772887;81;20870;-89
2022/05/12 09:31:17;;;;;;;3.65;1.22;;;;;;;34.50;13.86;100884.05;1771279;81;20901;-88
2022/05/12 09:33:47;;;;;;;4.03;1.40;;;;;;;34.53;13.87;100895.80;1770990;81;20905;-88
2022/05/12 09:36:26;;;;;;;4.85;1.45;;;;;;;34.48;14.32;100889.73;1771107;81;20838;-91
2022/05/12 09:38:57;;;;;;;5.28;1.32;;;;;;;34.66;14.09;100887.35;1771186;81;21182;-90
2022/05/12 09:41:43;;;;;;;2.10;1.45;;;;;;;34.77;13.76;100887.81;1770976;81;20942;-90
2022/05/12 09:44:22;;;;;;;4.80;1.40;;;;;;;34.84;14.17;100886.30;1810499;78;20961;-89
2022/05/12 09:47:12;;;;;;;5.30;1.60;;;;;;;34.93;14.21;100878.53;1838042;78;20930;-89
2022/05/12 09:49:41;;;;;;;10.78;1.47;;;;;;;34.96;14.05;100887.05;1836561;78;20915;-88
2022/05/12 09:52:36;;;;;;;2.10;1.05;;;;;;;35.00;13.50;100887.39;1808209;79;21164;-87
2022/05/12 09:55:36;;;;;;;2.50;1.10;;;;;;;34.93;13.46;100875.30;1790921;78;20911;-89
2022/05/12 09:58:18;;;;;;;3.05;1.92;;;;;;;34.93;13.27;100863.55;1806608;79;20927;-89
2022/05/12 10:01:09;;;;;;;1.25;1.00;;;;;;;34.77;13.45;100874.73;1808070;78;20939;-89
2022/05/12 10:09:29;;;;;;;3.75;1.07;;;;;;;34.73;13.47;100861.31;1807703;79;20872;-89
2022/05/12 10:12:22;;;;;;;2.25;1.47;;;;;;;34.81;13.59;100855.46;1789700;79;20974;-86
2022/05/12 10:14:57;;;;;;;2.87;1.10;;;;;;;34.89;13.96;100856.42;1808358;79;20966;-88
2022/05/12 10:17:38;;;;;;;3.85;1.10;;;;;;;34.91;13.22;100858.36;1808135;79;20899;-89
2022/05/12 10:20:09;;;;;;;4.75;1.27;;;;;;;34.81;12.98;100852.19;1808173;79;21244;-89
2022/05/12 10:22:45;;;;;;;2.58;1.15;;;;;;;34.63;13.47;100849.17;1808137;79;20919;-88
2022/05/12 10:26:02;;;;;;;4.72;1.37;;;;;;;34.60;13.58;100849.64;1808188;79;21376;-88
2022/05/12 10:29:00;;;;;;;0.90;0.80;;;;;;;34.73;13.25;100853.13;1808631;79;20895;-87
2022/05/12 10:31:59;;;;;;;2.47;0.82;;;;;;;34.70;13.76;100841.38;1807909;79;21708;-89
2022/05/12 10:34:54;;;;;;;2.85;1.20;;;;;;;34.70;13.65;100835.93;1808207;78;21312;-89
2022/05/12 10:37:53;;;;;;;5.67;1.42;;;;;;;34.64;13.47;100839.94;1808001;78;21548;-89
2022/05/12 10:40:28;;;;;;;4.72;1.82;;;;;;;34.60;14.02;100832.48;1808249;79;20926;-89
2022/05/12 10:43:36;;;;;;;7.08;2.20;;;;;;;34.57;13.71;100820.70;1776175;80;21328;-90
2022/05/12 10:46:33;;;;;;;3.83;1.75;;;;;;;34.58;13.80;100829.17;1808393;78;21004;-91
2022/05/12 10:49:19;;;;;;;3.37;2.20;;;;;;;34.63;13.69;100827.37;1766114;81;21164;-90
2022/05/12 10:52:27;;;;;;;6.10;1.60;;;;;;;34.53;13.64;100819.02;1807915;77;20942;-91
2022/05/12 10:55:18;;;;;;;5.45;1.60;;;;;;;34.52;13.84;100820.08;1807912;79;20934;-90
2022/05/12 10:58:05;;;;;;;2.60;2.12;;;;;;;34.62;13.61;100804.48;1808830;79;20939;-90
2022/05/12 11:00:50;;;;;;;7.53;1.70;;;;;;;34.64;14.21;100801.80;1808056;79;20828;-88
2022/05/12 11:03:30;;;;;;;2.05;0.80;;;;;;;34.63;13.80;100808.85;1808970;79;21296;-89
2022/05/12 11:06:00;;;;;;;4.47;0.80;;;;;;;34.54;13.85;100807.04;1809369;78;20939;-88
2022/05/12 11:08:34;;;;;;;4.70;1.10;;;;;;;34.50;14.09;100791.44;1809379;79;20974;-91
2022/05/12 11:11:15;;;;;;;5.85;0.95;;;;;;;34.47;13.66;100791.41;1810475;76;20865;-92
2022/05/12 11:14:07;;;;;;;4.92;0.98;;;;;;;34.30;13.54;100779.13;1789780;79;20965;-90
2022/05/12 11:16:45;;;;;;;5.83;1.47;;;;;;;34.04;13.75;100773.75;1808345;78;21947;-91
2022/05/12 11:19:23;;;;;;;3.83;1.00;;;;;;;33.79;14.12;100772.17;1807796;79;20907;-90
2022/05/12 11:22:07;;;;;;;3.25;1.12;;;;;;;33.53;14.46;100777.64;1808140;79;20896;-90
2022/05/12 11:24:53;;;;;;;4.25;0.78;;;;;;;33.32;14.65;100776.37;1808620;79;21010;-90
2022/05/12 11:27:28;;;;;;;10.72;1.67;;;;;;;33.18;15.06;100759.50;1810918;78;21177;-90
2022/05/12 11:30:18;;;;;;;3.08;0.90;;;;;;;33.08;14.92;100759.80;1809077;76;21241;-87
2022/05/12 11:32:53;;;;;;;2.37;0.90;;;;;;;32.86;14.95;100768.52;1793169;78;20883;-89
2022/05/12 11:35:27;;;;;;;3.37;0.98;;;;;;;32.62;15.10;100764.98;1810241;78;20883;-91
2022/05/12 11:38:09;;;;;;;7.60;1.50;;;;;;;32.38;15.46;100751.34;1810369;79;20899;-89
2022/05/12 11:40:49;;;;;;;4.97;1.47;;;;;;;32.06;15.99;100754.02;1810405;76;20942;-89
2022/05/12 11:46:45;;;;;;;2.12;1.40;;;;;;;31.36;16.28;100739.86;1807922;79;20887;-91
2022/05/12 11:49:32;;;;;;;2.58;1.70;;;;;;;30.90;16.73;100749.84;1808058;78;20899;-90
2022/05/12 11:52:20;;;;;;;7.47;2.05;;;;;;;30.62;16.71;100743.53;1807984;78;20966;-89
2022/05/12 11:54:53;;;;;;;3.00;1.10;;;;;;;30.39;17.52;100740.88;1807978;78;20907;-89
2022/05/12 11:57:28;;;;;;;2.62;1.20;;;;;;;30.23;17.76;100736.81;1808045;79;21238;-90
2022/05/12 11:59:57;;;;;;;6.12;1.40;;;;;;;30.05;17.97;100737.56;1807969;79;20922;-91
2022/05/12 12:02:36;;;;;;;5.90;1.70;;;;;;;29.90;18.51;100737.02;1808382;79;20978;-91
2022/05/12 12:05:12;;;;;;;5.70;1.80;;;;;;;29.66;18.51;100727.26;1807995;78;20922;-91
2022/05/12 12:07:44;;;;;;;11.05;1.72;;;;;;;29.41;19.08;100732.55;1804862;79;20974;-91
2022/05/12 12:10:31;;;;;;;10.68;2.02;;;;;;;29.18;18.69;100716.84;1826163;78;21156;-92
2022/05/12 12:13:10;;;;;;;4.28;1.15;;;;;;;28.90;19.05;100717.07;1828336;78;21398;-92
2022/05/12 12:15:41;;;;;;;2.15;1.10;;;;;;;28.60;19.54;100723.46;1828236;78;20975;-92
2022/05/12 12:18:25;;;;;;;1.45;1.05;;;;;;;28.38;19.66;100713.36;1828166;78;20966;-91
2022/05/12 12:20:56;;;;;;;1.27;0.70;;;;;;;28.16;20.15;100718.94;1828964;78;20880;-91
2022/05/12 12:23:35;;;;;;;1.27;0.82;;;;;;;27.98;20.23;100720.88;1794265;79;21237;-91
2022/05/12 12:26:14;;;;;;;4.37;1.20;;;;;;;27.86;20.69;100711.73;1781405;80;20880;-89
2022/05/12 12:29:04;;;;;;;6.67;1.50;;;;;;;27.82;20.79;100701.02;1792371;79;20841;-91